Time;durP1;ratioP1;P1;durP2;ratioP2;P2;SDS_P1;SDS_P2;PMS_P1;PMS_P2;Temp;Humidity;BMP_temperature;BMP_pressure;BME280_temperature;BME280_humidity;BME280_pressure;Samples;Min_cycle;Max_cycle;Signal;HPM_P1;HPM_P2
2021/08/06 00:01:43;;;;;;;6.07;5.67;;;18.50;99.90;;;;;;5048410;28;20245;-72
2021/08/06 00:04:10;;;;;;;6.10;5.60;;;18.50;99.90;;;;;;5048168;28;20319;-73
2021/08/06 00:06:38;;;;;;;5.93;5.53;;;18.50;99.90;;;;;;5048256;28;21196;-73
2021/08/06 00:09:05;;;;;;;6.40;5.50;;;18.50;99.90;;;;;;5048514;28;20248;-73
2021/08/06 00:11:34;;;;;;;6.07;5.67;;;18.50;99.90;;;;;;5048078;28;20234;-73
2021/08/06 00:14:01;;;;;;;6.17;5.77;;;18.50;99.90;;;;;;5048062;28;20258;-73
2021/08/06 00:16:28;;;;;;;6.50;5.90;;;18.50;99.90;;;;;;5047921;28;20220;-72
2021/08/06 00:18:57;;;;;;;5.90;5.40;;;18.50;99.90;;;;;;5048216;28;20294;-72
2021/08/06 00:21:24;;;;;;;5.57;5.17;;;18.50;99.90;;;;;;5048186;28;20207;-72
2021/08/06 00:23:50;;;;;;;6.13;5.70;;;18.50;99.90;;;;;;5048016;28;20216;-72
2021/08/06 00:26:17;;;;;;;6.00;5.60;;;18.50;99.90;;;;;;5048278;28;20201;-72
2021/08/06 00:28:45;;;;;;;6.17;5.77;;;18.40;99.90;;;;;;5048144;28;20293;-72
2021/08/06 00:31:12;;;;;;;6.10;5.60;;;18.40;99.90;;;;;;5048137;28;20205;-72
2021/08/06 00:33:38;;;;;;;5.70;5.20;;;18.40;99.90;;;;;;5048083;28;20226;-71
2021/08/06 00:36:06;;;;;;;5.70;5.30;;;18.40;99.90;;;;;;5048053;28;20212;-72
2021/08/06 00:38:33;;;;;;;5.90;5.40;;;18.40;99.90;;;;;;5047539;28;20686;-72
2021/08/06 00:41:00;;;;;;;5.90;5.60;;;18.40;99.90;;;;;;5048114;28;20235;-72
2021/08/06 00:43:26;;;;;;;5.70;5.30;;;18.40;99.90;;;;;;5048164;28;20257;-72
2021/08/06 00:45:53;;;;;;;6.20;5.70;;;18.40;99.90;;;;;;5047663;28;20729;-71
2021/08/06 00:48:20;;;;;;;6.73;6.17;;;18.40;99.90;;;;;;5047725;28;20208;-71
2021/08/06 00:50:47;;;;;;;6.23;5.73;;;18.40;99.90;;;;;;5051705;28;20204;-71
2021/08/06 00:53:15;;;;;;;6.17;5.77;;;18.30;99.90;;;;;;5051956;28;20204;-71
2021/08/06 00:55:42;;;;;;;6.47;5.97;;;18.30;99.90;;;;;;5051690;28;20208;-71
2021/08/06 00:58:08;;;;;;;6.40;5.80;;;18.30;99.90;;;;;;5051690;28;20250;-71
2021/08/06 01:00:35;;;;;;;5.93;5.53;;;18.30;99.90;;;;;;5051541;28;20548;-71
2021/08/06 01:03:06;;;;;;;6.27;5.67;;;18.30;99.90;;;;;;5051347;28;20730;-71
2021/08/06 01:05:38;;;;;;;5.53;5.23;;;18.30;99.90;;;;;;5051688;28;20219;-71
2021/08/06 01:08:11;;;;;;;6.03;5.47;;;18.30;99.90;;;;;;5051455;28;20643;-71
2021/08/06 01:10:45;;;;;;;5.73;5.30;;;18.30;99.90;;;;;;5051660;28;20200;-71
2021/08/06 01:13:15;;;;;;;5.93;5.53;;;18.30;99.90;;;;;;5051516;28;20195;-72
2021/08/06 01:15:43;;;;;;;6.30;5.80;;;18.30;99.90;;;;;;5032714;28;20302;-73
2021/08/06 01:18:16;;;;;;;6.80;6.20;;;18.30;99.90;;;;;;5031467;28;20256;-72
2021/08/06 01:20:50;;;;;;;6.03;5.63;;;18.30;99.90;;;;;;5031312;28;20714;-73
2021/08/06 01:23:19;;;;;;;6.10;5.70;;;18.30;99.90;;;;;;5031625;28;20224;-72
2021/08/06 01:25:50;;;;;;;6.77;5.30;;;18.40;99.90;;;;;;5031596;28;20215;-72
2021/08/06 01:28:19;;;;;;;7.03;5.70;;;18.40;99.90;;;;;;5031552;28;20197;-71
2021/08/06 01:30:46;;;;;;;6.07;5.67;;;18.40;99.90;;;;;;5031246;28;20602;-69
2021/08/06 01:33:15;;;;;;;5.17;4.67;;;18.40;99.90;;;;;;5031225;28;20204;-69
2021/08/06 01:35:42;;;;;;;6.10;5.70;;;18.40;99.90;;;;;;5031269;28;20251;-69
2021/08/06 01:38:09;;;;;;;6.27;5.83;;;18.40;99.90;;;;;;5031040;28;20240;-69
2021/08/06 01:40:43;;;;;;;5.93;5.53;;;18.40;99.90;;;;;;5031079;28;20240;-69
2021/08/06 01:43:16;;;;;;;6.27;5.70;;;18.40;99.90;;;;;;5031220;28;20243;-69
2021/08/06 01:45:49;;;;;;;5.87;5.50;;;18.40;99.90;;;;;;5030678;28;20563;-69
2021/08/06 01:48:19;;;;;;;6.03;5.37;;;18.40;99.90;;;;;;5030853;28;20196;-69
2021/08/06 01:50:49;;;;;;;6.10;5.60;;;18.30;99.90;;;;;;5030887;28;20201;-69
2021/08/06 01:53:20;;;;;;;6.07;5.67;;;18.30;99.90;;;;;;5030840;28;20239;-69
2021/08/06 01:55:56;;;;;;;6.43;5.93;;;18.30;99.90;;;;;;5030902;28;20196;-69
2021/08/06 01:58:25;;;;;;;6.47;6.07;;;18.30;99.90;;;;;;5030514;28;20240;-69
2021/08/06 02:00:53;;;;;;;6.07;5.57;;;18.30;99.90;;;;;;5029749;28;20271;-70
2021/08/06 02:03:21;;;;;;;6.13;5.77;;;18.30;99.90;;;;;;5030621;28;20209;-69
2021/08/06 02:05:50;;;;;;;6.00;5.50;;;18.30;99.90;;;;;;5030642;28;20287;-70
2021/08/06 02:08:17;;;;;;;6.20;5.80;;;18.30;99.90;;;;;;5030482;28;20212;-70
2021/08/06 02:10:45;;;;;;;5.77;5.33;;;18.20;99.90;;;;;;5030787;28;20209;-70
2021/08/06 02:13:12;;;;;;;6.13;5.57;;;18.30;99.90;;;;;;5030577;28;20216;-70
2021/08/06 02:15:42;;;;;;;6.10;5.50;;;18.20;99.90;;;;;;5030324;28;20232;-70
2021/08/06 02:18:11;;;;;;;6.93;6.23;;;18.20;99.90;;;;;;5030408;28;20519;-69
2021/08/06 02:20:38;;;;;;;6.40;6.00;;;18.20;99.90;;;;;;5031872;28;20200;-69
2021/08/06 02:23:07;;;;;;;6.67;6.17;;;18.20;99.90;;;;;;5040292;28;20208;-70
2021/08/06 02:25:34;;;;;;;7.00;6.33;;;18.10;99.90;;;;;;5044284;28;20196;-69
2021/08/06 02:28:02;;;;;;;6.37;5.87;;;18.20;99.90;;;;;;5038851;28;20702;-70
2021/08/06 02:30:31;;;;;;;6.73;6.13;;;18.20;99.90;;;;;;5030274;28;20568;-70
2021/08/06 02:33:00;;;;;;;7.20;6.67;;;18.10;99.90;;;;;;5039754;28;20219;-69
2021/08/06 02:35:27;;;;;;;6.80;6.40;;;18.10;99.90;;;;;;5046386;28;20207;-70
2021/08/06 02:37:53;;;;;;;8.00;7.30;;;18.10;99.90;;;;;;5046073;28;20235;-70
2021/08/06 02:40:20;;;;;;;8.07;7.40;;;18.20;99.90;;;;;;5046134;28;20678;-70
2021/08/06 02:42:48;;;;;;;7.83;7.13;;;18.20;99.90;;;;;;5046643;28;20678;-70
2021/08/06 02:45:14;;;;;;;7.20;6.77;;;18.20;99.90;;;;;;5046461;28;20212;-69
2021/08/06 02:47:41;;;;;;;7.57;7.07;;;18.20;99.90;;;;;;5046036;28;20208;-72
2021/08/06 02:50:11;;;;;;;9.00;8.20;;;18.10;99.90;;;;;;5046122;28;20458;-72
2021/08/06 02:52:38;;;;;;;7.90;7.27;;;18.10;99.90;;;;;;5045915;28;20240;-70
2021/08/06 02:55:06;;;;;;;7.63;7.03;;;18.10;99.90;;;;;;5045930;28;20583;-72
2021/08/06 02:57:33;;;;;;;7.87;7.07;;;18.10;99.90;;;;;;5045825;28;20265;-72
2021/08/06 03:00:00;;;;;;;8.90;7.80;;;18.00;99.90;;;;;;5045341;28;20247;-71
2021/08/06 03:02:26;;;;;;;7.07;6.57;;;17.90;99.90;;;;;;5045373;28;20710;-69
2021/08/06 03:04:53;;;;;;;8.77;8.17;;;17.90;99.90;;;;;;5045677;28;20662;-69
2021/08/06 03:07:21;;;;;;;9.17;8.50;;;17.90;99.90;;;;;;5045550;28;20560;-70
2021/08/06 03:09:48;;;;;;;8.40;7.80;;;17.90;99.90;;;;;;5045491;28;20208;-69
2021/08/06 03:12:15;;;;;;;8.10;7.30;;;18.00;99.90;;;;;;5045493;28;20208;-69
2021/08/06 03:14:41;;;;;;;7.93;7.33;;;18.00;99.90;;;;;;5045322;28;20232;-69
2021/08/06 03:17:08;;;;;;;8.20;7.60;;;18.00;99.90;;;;;;5036112;28;20663;-70
2021/08/06 03:19:34;;;;;;;8.10;7.60;;;18.00;99.90;;;;;;5028366;28;20259;-70
2021/08/06 03:22:01;;;;;;;8.40;7.90;;;18.10;99.90;;;;;;5026684;28;20737;-69
2021/08/06 03:24:29;;;;;;;9.03;8.33;;;18.10;99.90;;;;;;5027205;28;20627;-70
2021/08/06 03:26:56;;;;;;;9.27;8.47;;;18.10;99.90;;;;;;5027719;28;20235;-70
2021/08/06 03:29:22;;;;;;;9.33;8.57;;;18.10;99.90;;;;;;5027611;28;20251;-69
2021/08/06 03:31:49;;;;;;;8.93;8.40;;;18.10;99.90;;;;;;5027203;28;20679;-69
2021/08/06 03:34:16;;;;;;;9.47;8.57;;;18.00;99.90;;;;;;5027619;28;20212;-69
2021/08/06 03:36:43;;;;;;;8.47;7.93;;;18.10;99.90;;;;;;5029035;28;20236;-70
2021/08/06 03:39:10;;;;;;;9.77;9.00;;;18.00;99.90;;;;;;5028367;28;20824;-71
2021/08/06 03:41:38;;;;;;;9.70;8.90;;;18.00;99.90;;;;;;5028899;28;20263;-71
2021/08/06 03:44:05;;;;;;;9.60;8.83;;;18.00;99.90;;;;;;5028745;28;20235;-71
2021/08/06 03:46:31;;;;;;;9.37;8.63;;;18.00;99.90;;;;;;5028733;28;20578;-71
2021/08/06 03:48:58;;;;;;;10.57;8.80;;;18.00;99.90;;;;;;5028833;28;20263;-71
2021/08/06 03:51:24;;;;;;;10.30;9.33;;;18.00;99.90;;;;;;5029000;28;20212;-71
2021/08/06 03:53:51;;;;;;;10.60;9.73;;;18.00;99.90;;;;;;5028695;28;20259;-71
2021/08/06 03:56:18;;;;;;;9.80;9.00;;;18.00;99.90;;;;;;5028362;28;20668;-71
2021/08/06 03:58:46;;;;;;;9.30;8.60;;;18.00;99.90;;;;;;5028042;28;20240;-71
2021/08/06 04:01:13;;;;;;;10.80;9.10;;;18.00;99.90;;;;;;5028359;28;20662;-71
2021/08/06 04:03:39;;;;;;;10.10;9.30;;;18.00;99.90;;;;;;5028451;28;20216;-71
2021/08/06 04:06:06;;;;;;;9.90;9.20;;;18.00;99.90;;;;;;5028683;28;20201;-71
2021/08/06 04:08:33;;;;;;;10.17;9.47;;;17.90;99.90;;;;;;5028294;28;20671;-71
2021/08/06 04:10:59;;;;;;;10.10;9.40;;;17.90;99.90;;;;;;5028591;28;20212;-71
2021/08/06 04:13:26;;;;;;;9.50;8.80;;;17.90;99.90;;;;;;5028729;28;20215;-71
2021/08/06 04:15:54;;;;;;;9.40;8.60;;;17.90;99.90;;;;;;5028140;28;20286;-71
2021/08/06 04:18:21;;;;;;;9.10;8.50;;;17.80;99.90;;;;;;5028276;28;20606;-71
2021/08/06 04:20:50;;;;;;;8.80;8.10;;;17.80;99.90;;;;;;5028418;28;20213;-71
2021/08/06 04:23:17;;;;;;;10.00;9.30;;;17.80;99.90;;;;;;5027774;28;20294;-71
2021/08/06 04:25:43;;;;;;;9.47;8.67;;;17.80;99.90;;;;;;5028036;28;20231;-71
2021/08/06 04:28:10;;;;;;;8.90;8.30;;;17.70;99.90;;;;;;5028122;28;20204;-71
2021/08/06 04:30:36;;;;;;;8.47;7.90;;;17.70;99.90;;;;;;5028256;28;20256;-71
2021/08/06 04:33:04;;;;;;;8.63;8.00;;;17.70;99.90;;;;;;5027980;28;20201;-71
2021/08/06 04:35:31;;;;;;;8.60;7.90;;;17.70;99.90;;;;;;5028172;28;20208;-71
2021/08/06 04:37:58;;;;;;;9.80;8.90;;;17.70;99.90;;;;;;5028089;28;20267;-71
2021/08/06 04:40:25;;;;;;;9.17;8.30;;;17.80;99.90;;;;;;5028101;28;20240;-71
2021/08/06 04:42:52;;;;;;;9.80;9.10;;;17.80;99.90;;;;;;5028066;28;20209;-71
2021/08/06 04:45:19;;;;;;;10.00;8.87;;;17.80;99.90;;;;;;5028194;28;20208;-71
2021/08/06 04:47:50;;;;;;;9.27;8.63;;;17.80;99.90;;;;;;5027772;28;20209;-71
2021/08/06 04:50:22;;;;;;;9.67;8.87;;;17.80;99.90;;;;;;5027833;28;20648;-71
2021/08/06 04:52:48;;;;;;;10.10;9.37;;;17.90;99.90;;;;;;5027850;28;20201;-71
2021/08/06 04:55:15;;;;;;;9.87;9.17;;;17.90;99.90;;;;;;5027975;28;20204;-71
2021/08/06 04:57:43;;;;;;;10.90;10.00;;;17.90;99.90;;;;;;5027892;28;20215;-71
2021/08/06 05:00:10;;;;;;;11.00;10.07;;;18.00;99.90;;;;;;5027656;28;20243;-71
2021/08/06 05:02:37;;;;;;;11.37;10.13;;;18.00;99.90;;;;;;5027894;28;20258;-71
2021/08/06 05:05:05;;;;;;;11.37;10.47;;;18.00;99.90;;;;;;5027920;28;20255;-71
2021/08/06 05:07:33;;;;;;;11.27;10.20;;;17.90;99.90;;;;;;5028143;28;20213;-71
2021/08/06 05:10:00;;;;;;;10.77;9.97;;;18.00;99.90;;;;;;5027847;28;20205;-71
2021/08/06 05:12:27;;;;;;;11.03;10.17;;;18.00;99.90;;;;;;5028078;28;20282;-71
2021/08/06 05:14:53;;;;;;;11.37;10.47;;;18.00;99.90;;;;;;5027823;28;20248;-71
2021/08/06 05:17:20;;;;;;;11.13;10.30;;;18.00;99.90;;;;;;5045365;28;20551;-71
2021/08/06 05:19:47;;;;;;;11.47;10.60;;;18.00;99.90;;;;;;5047534;28;20572;-71
2021/08/06 05:22:13;;;;;;;11.27;10.37;;;18.00;99.90;;;;;;5047712;28;20200;-71
2021/08/06 05:24:41;;;;;;;11.73;10.70;;;18.00;99.90;;;;;;5047696;28;20200;-71
2021/08/06 05:27:10;;;;;;;11.57;10.67;;;18.00;99.90;;;;;;5047540;28;20213;-71
2021/08/06 05:29:37;;;;;;;12.27;11.37;;;18.00;99.90;;;;;;5047647;28;20208;-71
2021/08/06 05:32:04;;;;;;;13.17;12.07;;;18.00;99.90;;;;;;5047459;28;20717;-71
2021/08/06 05:34:31;;;;;;;12.10;11.03;;;18.00;99.90;;;;;;5046793;28;20208;-71
2021/08/06 05:36:57;;;;;;;12.57;11.47;;;18.00;99.90;;;;;;5049426;28;20228;-71
2021/08/06 05:39:24;;;;;;;13.03;11.93;;;18.00;99.90;;;;;;5050946;28;20228;-71
2021/08/06 05:41:52;;;;;;;12.87;11.70;;;18.00;99.90;;;;;;5050903;28;20200;-71
2021/08/06 05:44:19;;;;;;;12.70;11.60;;;18.00;99.90;;;;;;5050717;28;20680;-71
2021/08/06 05:46:45;;;;;;;12.33;11.13;;;18.00;99.90;;;;;;5050722;28;20254;-71
2021/08/06 05:49:12;;;;;;;11.77;10.60;;;18.00;99.90;;;;;;5050936;28;20215;-71
2021/08/06 05:51:39;;;;;;;12.00;10.90;;;18.00;99.90;;;;;;5050890;28;20578;-71
2021/08/06 05:54:05;;;;;;;13.93;11.13;;;18.00;99.90;;;;;;5050669;28;20211;-71
2021/08/06 05:56:32;;;;;;;12.43;11.27;;;18.00;99.90;;;;;;5050950;28;20223;-71
2021/08/06 05:59:00;;;;;;;12.93;11.47;;;18.10;99.90;;;;;;5050017;28;20297;-71
2021/08/06 06:01:27;;;;;;;12.77;11.67;;;18.10;99.90;;;;;;5051047;28;20261;-72
2021/08/06 06:03:55;;;;;;;12.83;11.57;;;18.10;99.90;;;;;;5050261;28;20369;-72
2021/08/06 06:06:22;;;;;;;12.50;11.37;;;18.10;99.90;;;;;;5050598;28;20208;-72
2021/08/06 06:08:48;;;;;;;12.83;11.63;;;18.20;99.90;;;;;;5050506;28;20258;-72
2021/08/06 06:11:15;;;;;;;12.60;11.47;;;18.20;99.90;;;;;;5050548;28;20204;-72
2021/08/06 06:13:42;;;;;;;14.53;13.17;;;18.30;99.90;;;;;;5050430;28;20221;-72
2021/08/06 06:16:10;;;;;;;13.97;12.67;;;18.30;99.90;;;;;;5050335;28;20200;-72
2021/08/06 06:18:36;;;;;;;14.10;12.90;;;18.30;99.90;;;;;;5050084;28;20897;-72
2021/08/06 06:21:03;;;;;;;14.93;13.07;;;18.40;99.90;;;;;;5050170;28;20285;-72
2021/08/06 06:23:30;;;;;;;14.00;12.67;;;18.40;99.90;;;;;;5050165;28;20672;-72
2021/08/06 06:25:56;;;;;;;13.20;12.20;;;18.40;99.90;;;;;;5050094;28;20273;-71
2021/08/06 06:28:23;;;;;;;13.40;12.10;;;18.40;99.90;;;;;;5050166;28;20254;-72
2021/08/06 06:30:50;;;;;;;14.80;13.33;;;18.40;99.90;;;;;;5050096;28;20212;-72
2021/08/06 06:33:17;;;;;;;14.13;12.73;;;18.40;99.90;;;;;;5049763;28;20686;-72
2021/08/06 06:35:44;;;;;;;13.17;11.97;;;18.40;99.90;;;;;;5049951;28;20208;-72
2021/08/06 06:38:11;;;;;;;12.97;11.93;;;18.40;99.90;;;;;;5049793;28;20204;-72
2021/08/06 06:40:37;;;;;;;13.50;12.40;;;18.50;99.90;;;;;;5050016;28;20235;-72
2021/08/06 06:43:04;;;;;;;13.20;12.00;;;18.50;99.90;;;;;;5049784;28;20282;-72
2021/08/06 06:45:31;;;;;;;13.23;12.13;;;18.50;99.90;;;;;;5049755;28;20203;-72
2021/08/06 06:47:58;;;;;;;12.80;11.80;;;18.50;99.90;;;;;;5049281;28;20204;-72
2021/08/06 06:50:27;;;;;;;14.30;13.13;;;18.50;99.90;;;;;;5050031;28;20212;-72
2021/08/06 06:52:55;;;;;;;13.57;12.37;;;18.50;99.90;;;;;;5049525;28;20216;-70
2021/08/06 06:55:22;;;;;;;11.10;10.30;;;18.60;99.90;;;;;;5049387;28;20215;-70
2021/08/06 06:57:50;;;;;;;10.50;9.50;;;18.60;99.90;;;;;;5049344;28;20578;-71
2021/08/06 07:00:19;;;;;;;11.00;10.10;;;18.60;99.90;;;;;;5049245;28;20250;-71
2021/08/06 07:02:45;;;;;;;10.23;9.53;;;18.60;99.90;;;;;;5049697;28;20254;-71
2021/08/06 07:05:13;;;;;;;9.73;8.93;;;18.70;99.90;;;;;;5049544;28;20285;-72
2021/08/06 07:07:41;;;;;;;10.07;9.30;;;18.70;99.90;;;;;;5049638;28;20211;-71
2021/08/06 07:10:09;;;;;;;9.63;8.30;;;18.70;99.90;;;;;;5049368;28;20212;-71
2021/08/06 07:12:36;;;;;;;8.00;7.33;;;18.70;99.90;;;;;;5049182;28;20208;-71
2021/08/06 07:15:04;;;;;;;7.67;7.17;;;18.80;99.90;;;;;;5049112;28;20224;-71
2021/08/06 07:17:31;;;;;;;8.10;7.60;;;18.80;99.90;;;;;;5049477;28;20238;-71
2021/08/06 07:19:59;;;;;;;7.93;7.33;;;18.90;99.90;;;;;;5048942;28;20305;-72
2021/08/06 07:22:25;;;;;;;7.53;7.03;;;18.90;99.90;;;;;;5049183;28;20274;-71
2021/08/06 07:24:54;;;;;;;7.30;6.67;;;19.00;99.90;;;;;;5049214;28;20254;-71
2021/08/06 07:27:21;;;;;;;7.27;6.77;;;19.10;99.90;;;;;;5048952;28;20208;-71
2021/08/06 07:29:48;;;;;;;7.00;6.53;;;19.20;99.90;;;;;;5048806;28;20655;-71
2021/08/06 07:32:15;;;;;;;8.60;8.00;;;19.20;99.90;;;;;;5048589;28;20420;-71
2021/08/06 07:34:42;;;;;;;9.13;8.20;;;19.30;99.90;;;;;;5048884;28;20223;-72
2021/08/06 07:37:09;;;;;;;8.50;7.67;;;19.40;99.90;;;;;;5048679;28;20269;-72
2021/08/06 07:39:36;;;;;;;7.47;6.97;;;19.40;99.90;;;;;;5048709;28;20322;-71
2021/08/06 07:42:04;;;;;;;8.13;7.53;;;19.50;99.90;;;;;;5048890;28;20208;-71
2021/08/06 07:44:31;;;;;;;6.50;6.10;;;19.50;99.90;;;;;;5048743;28;20208;-71
2021/08/06 07:46:57;;;;;;;7.30;6.70;;;19.60;99.90;;;;;;5048647;28;20208;-72
2021/08/06 07:49:24;;;;;;;6.60;6.10;;;19.60;99.90;;;;;;5048960;28;20215;-72
2021/08/06 07:51:51;;;;;;;7.87;6.63;;;19.70;99.90;;;;;;5048448;28;20743;-71
2021/08/06 07:54:17;;;;;;;6.40;6.00;;;19.70;99.90;;;;;;5048846;28;20212;-71
2021/08/06 07:56:44;;;;;;;6.63;6.13;;;19.70;99.90;;;;;;5048381;28;20681;-71
2021/08/06 07:59:14;;;;;;;5.17;4.87;;;19.80;99.90;;;;;;5047559;28;20278;-71
2021/08/06 08:01:40;;;;;;;5.63;5.27;;;19.80;99.90;;;;;;5048031;28;20697;-71
2021/08/06 08:04:07;;;;;;;5.60;5.20;;;19.80;99.90;;;;;;5048359;28;20258;-71
2021/08/06 08:06:34;;;;;;;5.60;5.17;;;19.80;99.90;;;;;;5048820;28;20269;-72
2021/08/06 08:09:00;;;;;;;5.10;4.80;;;19.80;99.90;;;;;;5048035;28;20604;-72
2021/08/06 08:11:27;;;;;;;6.30;5.70;;;19.80;99.90;;;;;;5048368;28;20265;-72
2021/08/06 08:13:53;;;;;;;5.80;5.40;;;19.90;99.90;;;;;;5048264;28;20270;-72
2021/08/06 08:16:22;;;;;;;6.30;5.83;;;19.90;99.90;;;;;;5048274;28;20211;-72
2021/08/06 08:18:48;;;;;;;6.60;6.00;;;19.90;99.90;;;;;;5048236;28;20208;-72
2021/08/06 08:21:15;;;;;;;6.50;6.00;;;19.90;99.90;;;;;;5047687;28;20643;-72
2021/08/06 08:23:42;;;;;;;6.43;5.93;;;20.00;99.90;;;;;;5048311;28;20204;-72
2021/08/06 08:26:08;;;;;;;6.90;6.23;;;20.00;99.90;;;;;;5048269;28;20218;-71
2021/08/06 08:28:35;;;;;;;5.87;5.43;;;20.00;99.90;;;;;;5048066;28;20216;-72
2021/08/06 08:31:02;;;;;;;5.53;5.03;;;20.10;99.90;;;;;;5047892;28;20204;-72
2021/08/06 08:33:30;;;;;;;6.47;5.97;;;20.10;99.90;;;;;;5047968;28;20212;-72
2021/08/06 08:35:57;;;;;;;6.20;5.70;;;20.10;99.90;;;;;;5047967;28;20236;-72
2021/08/06 08:38:24;;;;;;;5.67;5.27;;;20.20;99.90;;;;;;5048276;28;20232;-72
2021/08/06 08:40:51;;;;;;;5.83;4.90;;;20.30;99.90;;;;;;5047805;28;20275;-72
2021/08/06 08:43:18;;;;;;;4.77;4.43;;;20.30;99.90;;;;;;5047928;28;20204;-72
2021/08/06 08:45:44;;;;;;;4.40;4.03;;;20.30;99.90;;;;;;5047863;28;20670;-72
2021/08/06 08:48:13;;;;;;;4.10;3.80;;;20.40;99.90;;;;;;5047793;28;20208;-72
2021/08/06 08:50:42;;;;;;;4.20;3.90;;;20.40;99.90;;;;;;5047919;28;20215;-71
2021/08/06 08:53:10;;;;;;;4.20;3.90;;;20.50;99.90;;;;;;5047571;28;20234;-72
2021/08/06 08:55:38;;;;;;;3.73;3.53;;;20.50;99.90;;;;;;5047912;28;20208;-72
2021/08/06 08:58:05;;;;;;;3.53;3.33;;;20.60;99.90;;;;;;5047644;28;20236;-72
2021/08/06 09:00:32;;;;;;;3.20;3.00;;;20.60;99.90;;;;;;5048024;28;20220;-72
2021/08/06 09:02:59;;;;;;;3.30;2.83;;;20.60;99.90;;;;;;5047863;28;20611;-72
2021/08/06 09:05:28;;;;;;;3.80;3.60;;;20.70;99.90;;;;;;5048013;28;20208;-71
2021/08/06 09:07:58;;;;;;;3.70;3.50;;;20.80;99.90;;;;;;5047661;28;20204;-72
2021/08/06 09:10:28;;;;;;;4.23;3.20;;;21.00;99.90;;;;;;5049074;28;20208;-72
2021/08/06 09:12:57;;;;;;;3.60;2.97;;;21.10;99.90;;;;;;5051808;28;20200;-72
2021/08/06 09:15:44;;;;;;;3.57;3.27;;;21.10;99.90;;;;;;5051525;28;20232;-72
2021/08/06 09:18:30;;;;;;;3.50;3.20;;;21.20;99.90;;;;;;5051200;28;20211;-72
2021/08/06 09:20:59;;;;;;;3.30;3.10;;;21.20;99.90;;;;;;5051332;28;20251;-72
2021/08/06 09:23:46;;;;;;;2.80;2.70;;;21.20;99.90;;;;;;5051402;28;20265;-72
2021/08/06 09:26:34;;;;;;;2.67;2.57;;;21.30;99.90;;;;;;5051274;28;20196;-72
2021/08/06 09:29:04;;;;;;;2.70;2.60;;;21.30;99.90;;;;;;5051194;28;20218;-72
2021/08/06 09:31:33;;;;;;;3.20;3.00;;;21.40;99.90;;;;;;5051171;28;20285;-72
2021/08/06 09:34:23;;;;;;;3.53;2.80;;;21.40;99.90;;;;;;5050991;28;20204;-72
2021/08/06 09:36:55;;;;;;;3.00;2.80;;;21.50;99.90;;;;;;5047009;28;20231;-72
2021/08/06 09:39:24;;;;;;;3.30;3.10;;;21.60;99.90;;;;;;5051162;28;20220;-72
2021/08/06 09:41:50;;;;;;;3.27;3.07;;;21.60;99.90;;;;;;5050985;28;20235;-72
2021/08/06 09:44:20;;;;;;;3.13;2.87;;;21.70;99.90;;;;;;5050568;28;20208;-72
2021/08/06 09:46:47;;;;;;;3.07;2.80;;;21.60;99.90;;;;;;5050646;28;20719;-72
2021/08/06 09:49:14;;;;;;;3.22;3.03;;;21.60;99.90;;;;;;5050814;28;20286;-72
2021/08/06 09:51:43;;;;;;;2.87;2.70;;;21.70;99.90;;;;;;5050745;28;20205;-72
2021/08/06 09:54:25;;;;;;;3.10;2.78;;;21.70;99.90;;;;;;5050759;28;20277;-72
2021/08/06 09:57:04;;;;;;;2.53;2.40;;;21.80;99.90;;;;;;5050793;28;20243;-72
2021/08/06 09:59:34;;;;;;;2.60;2.40;;;21.80;99.90;;;;;;5050567;28;20235;-72
2021/08/06 10:02:19;;;;;;;2.75;2.65;;;21.90;99.90;;;;;;5050097;28;20760;-72
2021/08/06 10:04:57;;;;;;;2.55;2.45;;;22.00;99.90;;;;;;5050479;28;20283;-73
2021/08/06 10:07:24;;;;;;;2.60;2.50;;;22.00;99.90;;;;;;5050812;28;20263;-72
2021/08/06 10:09:52;;;;;;;2.40;2.30;;;22.00;99.90;;;;;;5050891;28;20216;-72
2021/08/06 10:12:19;;;;;;;2.40;2.20;;;22.00;99.90;;;;;;5050632;28;20212;-72
2021/08/06 10:14:46;;;;;;;2.20;2.10;;;22.10;99.90;;;;;;5050422;28;20890;-72
2021/08/06 10:17:13;;;;;;;2.30;2.20;;;22.20;99.90;;;;;;5050263;28;20238;-72
2021/08/06 10:19:40;;;;;;;3.08;2.88;;;22.20;99.90;;;;;;5050428;28;20226;-72
2021/08/06 10:22:08;;;;;;;2.70;2.50;;;22.30;99.90;;;;;;5049451;28;20603;-72
2021/08/06 10:24:36;;;;;;;2.50;2.30;;;22.40;99.90;;;;;;5050532;28;20286;-73
2021/08/06 10:27:05;;;;;;;3.08;2.85;;;22.40;99.90;;;;;;5050165;28;20618;-72
2021/08/06 10:29:32;;;;;;;2.83;2.60;;;22.50;99.90;;;;;;5050120;28;20674;-72
2021/08/06 10:32:14;;;;;;;3.40;2.50;;;22.60;99.90;;;;;;5049978;28;20231;-72
2021/08/06 10:35:06;;;;;;;2.60;2.40;;;22.60;99.90;;;;;;5050435;28;20220;-73
2021/08/06 10:37:54;;;;;;;2.40;2.20;;;22.70;99.90;;;;;;5049868;28;20211;-73
2021/08/06 10:44:06;;;;;;;2.55;2.45;;;22.80;99.90;;;;;;5047703;28;20210;-70
2021/08/06 10:47:02;;;;;;;2.20;2.10;;;23.00;99.90;;;;;;5044962;28;20204;-70
2021/08/06 10:49:30;;;;;;;2.42;2.33;;;23.00;99.90;;;;;;5049889;28;20189;-70
2021/08/06 10:52:18;;;;;;;2.08;1.98;;;22.90;99.90;;;;;;5049808;28;20211;-72
2021/08/06 10:54:47;;;;;;;1.98;1.88;;;23.00;99.90;;;;;;5049557;28;20668;-71
2021/08/06 10:57:30;;;;;;;2.70;2.50;;;23.10;99.90;;;;;;5049624;28;20266;-71
2021/08/06 10:59:59;;;;;;;2.20;2.10;;;23.20;99.90;;;;;;5049365;28;20236;-71
2021/08/06 11:02:46;;;;;;;3.28;2.35;;;23.20;99.90;;;;;;5049538;28;20240;-71
2021/08/06 11:05:36;;;;;;;2.35;2.15;;;23.30;99.90;;;;;;5049349;28;20564;-72
2021/08/06 11:08:23;;;;;;;2.50;2.28;;;23.40;99.90;;;;;;5049330;28;20205;-71
2021/08/06 11:10:51;;;;;;;2.03;1.92;;;23.60;99.90;;;;;;5049373;28;20208;-71
2021/08/06 11:13:53;;;;;;;1.80;1.70;;;23.80;98.30;;;;;;5048948;28;20709;-71
2021/08/06 11:16:22;;;;;;;2.15;1.60;;;23.90;96.70;;;;;;5049245;28;20192;-72
2021/08/06 11:18:49;;;;;;;1.73;1.63;;;24.10;96.60;;;;;;5049170;28;20616;-71
2021/08/06 11:21:19;;;;;;;2.35;1.50;;;24.20;97.10;;;;;;5048980;28;20274;-71
2021/08/06 11:23:59;;;;;;;1.58;1.45;;;24.40;95.90;;;;;;5049316;28;20215;-71
2021/08/06 11:26:25;;;;;;;1.83;1.73;;;24.50;96.00;;;;;;5049153;28;20262;-72
2021/08/06 11:28:56;;;;;;;2.25;1.77;;;24.60;95.70;;;;;;5049156;28;20200;-72
2021/08/06 11:31:24;;;;;;;1.75;1.65;;;24.60;95.40;;;;;;5049006;28;20642;-72
2021/08/06 11:33:59;;;;;;;1.50;1.40;;;24.70;94.60;;;;;;5048869;28;20273;-72
2021/08/06 11:36:25;;;;;;;2.00;1.55;;;24.90;95.00;;;;;;5048723;28;20268;-72
2021/08/06 11:38:54;;;;;;;1.80;1.70;;;25.10;95.30;;;;;;5048861;28;20228;-72
2021/08/06 11:41:21;;;;;;;3.58;1.90;;;25.10;94.80;;;;;;5048635;28;20228;-72
2021/08/06 11:43:48;;;;;;;2.60;1.80;;;25.00;95.90;;;;;;5048656;28;20208;-71
2021/08/06 11:46:15;;;;;;;2.50;1.80;;;24.80;95.60;;;;;;5048489;28;20204;-72
2021/08/06 11:48:51;;;;;;;2.80;1.85;;;24.90;95.30;;;;;;5048550;28;20204;-72
2021/08/06 11:51:18;;;;;;;2.90;1.90;;;25.10;95.90;;;;;;5048557;28;20285;-71
2021/08/06 11:53:46;;;;;;;1.60;1.50;;;25.30;95.70;;;;;;5048271;28;20239;-72
2021/08/06 11:56:14;;;;;;;1.77;1.67;;;25.40;94.50;;;;;;5048201;28;20724;-72
2021/08/06 11:58:42;;;;;;;1.58;1.48;;;25.50;93.60;;;;;;5048166;28;20236;-71
2021/08/06 12:01:18;;;;;;;1.70;1.60;;;25.50;93.00;;;;;;5048286;28;20232;-72
2021/08/06 12:03:48;;;;;;;1.75;1.65;;;25.60;93.00;;;;;;5048442;28;20206;-72
2021/08/06 12:06:16;;;;;;;2.13;1.58;;;25.70;92.50;;;;;;5048224;28;20254;-71
2021/08/06 12:08:43;;;;;;;1.85;1.75;;;25.70;92.30;;;;;;5048341;28;20269;-71
2021/08/06 12:11:12;;;;;;;1.70;1.60;;;25.80;92.30;;;;;;5048168;28;20212;-72
2021/08/06 12:13:41;;;;;;;1.80;1.70;;;25.80;91.60;;;;;;5047987;28;20702;-71
2021/08/06 12:16:11;;;;;;;2.00;1.60;;;25.90;91.80;;;;;;5048060;28;20211;-72
2021/08/06 12:18:39;;;;;;;1.70;1.60;;;25.90;92.40;;;;;;5047842;28;20636;-72
2021/08/06 12:21:10;;;;;;;1.80;1.70;;;26.10;91.80;;;;;;5047991;28;20224;-71
2021/08/06 12:23:38;;;;;;;2.60;2.50;;;26.10;91.80;;;;;;5048360;28;20191;-71
2021/08/06 12:26:12;;;;;;;3.65;3.35;;;26.20;91.90;;;;;;5047788;28;20208;-72
2021/08/06 12:28:40;;;;;;;2.00;1.90;;;26.30;92.50;;;;;;5048368;28;20204;-72
2021/08/06 12:31:11;;;;;;;1.83;1.80;;;26.40;93.40;;;;;;5048050;28;20215;-72
2021/08/06 12:33:39;;;;;;;2.20;2.10;;;26.60;94.00;;;;;;5048198;28;20203;-72
2021/08/06 12:36:13;;;;;;;1.83;1.70;;;26.80;94.50;;;;;;5048026;28;20228;-72
2021/08/06 12:38:40;;;;;;;2.80;1.90;;;26.90;93.30;;;;;;5048232;28;20285;-71
2021/08/06 12:41:07;;;;;;;2.30;1.95;;;27.00;92.90;;;;;;5047913;28;20262;-72
2021/08/06 12:43:34;;;;;;;2.20;2.00;;;27.00;93.00;;;;;;5048033;28;20211;-72
2021/08/06 12:46:13;;;;;;;2.30;2.10;;;26.90;92.60;;;;;;5050677;28;20647;-71
2021/08/06 12:49:02;;;;;;;2.10;2.00;;;26.60;92.50;;;;;;5050607;28;20254;-72
2021/08/06 12:51:30;;;;;;;2.00;1.90;;;26.70;92.60;;;;;;5034524;28;20258;-72
2021/08/06 12:53:57;;;;;;;2.17;2.08;;;26.70;92.70;;;;;;5044951;28;20212;-73
2021/08/06 12:56:24;;;;;;;2.20;2.05;;;26.60;92.50;;;;;;5048068;28;20208;-73